sensor_id;sensor_type;location;lat;lon;timestamp;temperature;humidity
13802;DHT22;6972;51.518;6.918;2022-12-18T00:00:47;-5.30;99.90
13802;DHT22;6972;51.518;6.918;2022-12-18T00:03:14;-5.40;99.90
13802;DHT22;6972;51.518;6.918;2022-12-18T00:05:50;-5.40;99.90
13802;DHT22;6972;51.518;6.918;2022-12-18T00:08:17;-5.30;99.90
13802;DHT22;6972;51.518;6.918;2022-12-18T00:10:43;-5.40;99.90
13802;DHT22;6972;51.518;6.918;2022-12-18T00:13:09;-5.40;99.90
13802;DHT22;6972;51.518;6.918;2022-12-18T00:15:37;-5.40;99.90
13802;DHT22;6972;51.518;6.918;2022-12-18T00:18:03;-5.50;99.90
13802;DHT22;6972;51.518;6.918;2022-12-18T00:20:29;-5.50;99.90
13802;DHT22;6972;51.518;6.918;2022-12-18T00:22:58;-5.50;99.90
13802;DHT22;6972;51.518;6.918;2022-12-18T00:25:23;-5.10;99.90
13802;DHT22;6972;51.518;6.918;2022-12-18T00:27:49;-5.50;99.90
13802;DHT22;6972;51.518;6.918;2022-12-18T00:30:15;-5.50;99.90
13802;DHT22;6972;51.518;6.918;2022-12-18T00:32:40;-5.50;99.90
13802;DHT22;6972;51.518;6.918;2022-12-18T00:35:06;-5.50;99.90
13802;DHT22;6972;51.518;6.918;2022-12-18T00:37:34;-5.50;99.90
13802;DHT22;6972;51.518;6.918;2022-12-18T00:39:59;-5.50;99.90
13802;DHT22;6972;51.518;6.918;2022-12-18T00:42:25;-5.40;99.90
13802;DHT22;6972;51.518;6.918;2022-12-18T00:45:09;-5.50;99.90
13802;DHT22;6972;51.518;6.918;2022-12-18T00:47:35;-5.50;99.90
13802;DHT22;6972;51.518;6.918;2022-12-18T00:50:00;-5.60;99.90
13802;DHT22;6972;51.518;6.918;2022-12-18T00:52:26;-5.60;99.90
13802;DHT22;6972;51.518;6.918;2022-12-18T00:54:52;-5.60;99.90
13802;DHT22;6972;51.518;6.918;2022-12-18T00:57:17;-5.60;99.90
13802;DHT22;6972;51.518;6.918;2022-12-18T00:59:43;-5.60;99.90
13802;DHT22;6972;51.518;6.918;2022-12-18T01:02:08;-5.60;99.90
13802;DHT22;6972;51.518;6.918;2022-12-18T01:04:34;-5.60;99.90
13802;DHT22;6972;51.518;6.918;2022-12-18T01:07:00;-5.60;99.90
13802;DHT22;6972;51.518;6.918;2022-12-18T01:09:26;-5.70;99.90
13802;DHT22;6972;51.518;6.918;2022-12-18T01:11:51;-5.70;99.90
13802;DHT22;6972;51.518;6.918;2022-12-18T01:14:17;-5.80;99.90
13802;DHT22;6972;51.518;6.918;2022-12-18T01:16:43;-5.80;99.90
13802;DHT22;6972;51.518;6.918;2022-12-18T01:19:08;-5.80;99.90
13802;DHT22;6972;51.518;6.918;2022-12-18T01:21:34;-5.80;99.90
13802;DHT22;6972;51.518;6.918;2022-12-18T01:24:00;-5.70;99.90
13802;DHT22;6972;51.518;6.918;2022-12-18T01:26:26;-5.80;99.90
13802;DHT22;6972;51.518;6.918;2022-12-18T01:28:55;-3.90;99.90
13802;DHT22;6972;51.518;6.918;2022-12-18T01:31:24;-5.80;99.90
13802;DHT22;6972;51.518;6.918;2022-12-18T01:33:50;-5.80;99.90
13802;DHT22;6972;51.518;6.918;2022-12-18T01:36:23;-5.80;99.90
13802;DHT22;6972;51.518;6.918;2022-12-18T01:38:50;-5.80;99.90
13802;DHT22;6972;51.518;6.918;2022-12-18T01:41:19;-5.80;99.90
13802;DHT22;6972;51.518;6.918;2022-12-18T01:46:18;-5.80;99.90
13802;DHT22;6972;51.518;6.918;2022-12-18T01:48:47;-5.80;99.90
13802;DHT22;6972;51.518;6.918;2022-12-18T01:51:13;-5.80;99.90
13802;DHT22;6972;51.518;6.918;2022-12-18T01:53:41;-5.80;99.90
13802;DHT22;6972;51.518;6.918;2022-12-18T01:56:08;-5.80;99.90
13802;DHT22;6972;51.518;6.918;2022-12-18T02:01:09;-5.80;99.90
13802;DHT22;6972;51.518;6.918;2022-12-18T02:03:35;-5.80;99.90
13802;DHT22;6972;51.518;6.918;2022-12-18T02:06:18;-5.80;99.90
13802;DHT22;6972;51.518;6.918;2022-12-18T02:13:54;-5.60;99.90
13802;DHT22;6972;51.518;6.918;2022-12-18T02:16:27;-5.60;99.90
13802;DHT22;6972;51.518;6.918;2022-12-18T02:19:01;-5.60;99.90
13802;DHT22;6972;51.518;6.918;2022-12-18T02:27:45;-5.80;99.90
13802;DHT22;6972;51.518;6.918;2022-12-18T02:30:12;-5.80;99.90
13802;DHT22;6972;51.518;6.918;2022-12-18T02:32:42;-5.80;99.90
13802;DHT22;6972;51.518;6.918;2022-12-18T02:35:25;-5.90;99.90
13802;DHT22;6972;51.518;6.918;2022-12-18T02:37:53;-5.90;99.90
13802;DHT22;6972;51.518;6.918;2022-12-18T02:40:22;-5.90;99.90
13802;DHT22;6972;51.518;6.918;2022-12-18T02:42:48;-5.90;99.90
13802;DHT22;6972;51.518;6.918;2022-12-18T02:45:13;-5.80;99.90
13802;DHT22;6972;51.518;6.918;2022-12-18T02:47:42;-5.90;99.90
13802;DHT22;6972;51.518;6.918;2022-12-18T02:50:35;-5.80;99.90
13802;DHT22;6972;51.518;6.918;2022-12-18T02:58:26;-5.70;99.90
13802;DHT22;6972;51.518;6.918;2022-12-18T03:01:04;-5.80;99.90
13802;DHT22;6972;51.518;6.918;2022-12-18T03:03:47;-5.80;99.90
13802;DHT22;6972;51.518;6.918;2022-12-18T03:06:25;-5.90;99.90
13802;DHT22;6972;51.518;6.918;2022-12-18T03:09:11;-5.80;99.90
13802;DHT22;6972;51.518;6.918;2022-12-18T03:11:41;-5.80;99.90
13802;DHT22;6972;51.518;6.918;2022-12-18T03:14:30;-5.90;99.90
13802;DHT22;6972;51.518;6.918;2022-12-18T03:17:01;-5.90;99.90
13802;DHT22;6972;51.518;6.918;2022-12-18T03:19:29;-5.90;99.90
13802;DHT22;6972;51.518;6.918;2022-12-18T03:21:58;-5.90;99.90
13802;DHT22;6972;51.518;6.918;2022-12-18T03:24:28;-5.90;99.90
13802;DHT22;6972;51.518;6.918;2022-12-18T03:26:59;-5.60;99.90
13802;DHT22;6972;51.518;6.918;2022-12-18T03:32:17;-5.90;99.90
13802;DHT22;6972;51.518;6.918;2022-12-18T03:34:46;-5.90;99.90
13802;DHT22;6972;51.518;6.918;2022-12-18T03:37:14;-5.90;99.90
13802;DHT22;6972;51.518;6.918;2022-12-18T03:39:40;-5.90;99.90
13802;DHT22;6972;51.518;6.918;2022-12-18T03:47:57;-5.90;99.90
13802;DHT22;6972;51.518;6.918;2022-12-18T03:53:05;-6.00;99.90
13802;DHT22;6972;51.518;6.918;2022-12-18T03:55:34;-6.00;99.90
13802;DHT22;6972;51.518;6.918;2022-12-18T03:58:02;-6.00;99.90
13802;DHT22;6972;51.518;6.918;2022-12-18T04:00:29;-5.90;99.90
13802;DHT22;6972;51.518;6.918;2022-12-18T04:02:57;-5.90;99.90
13802;DHT22;6972;51.518;6.918;2022-12-18T04:05:26;-5.90;99.90
13802;DHT22;6972;51.518;6.918;2022-12-18T04:07:53;-5.90;99.90
13802;DHT22;6972;51.518;6.918;2022-12-18T04:10:20;-5.90;99.90
13802;DHT22;6972;51.518;6.918;2022-12-18T04:12:45;-6.00;99.90
13802;DHT22;6972;51.518;6.918;2022-12-18T04:15:12;-5.90;99.90
13802;DHT22;6972;51.518;6.918;2022-12-18T04:17:39;-5.90;99.90
13802;DHT22;6972;51.518;6.918;2022-12-18T04:20:08;-5.90;99.90
13802;DHT22;6972;51.518;6.918;2022-12-18T04:22:34;-6.00;99.90
13802;DHT22;6972;51.518;6.918;2022-12-18T04:25:00;-6.00;99.90
13802;DHT22;6972;51.518;6.918;2022-12-18T04:27:26;-6.00;99.90
13802;DHT22;6972;51.518;6.918;2022-12-18T04:29:51;-6.00;99.90
13802;DHT22;6972;51.518;6.918;2022-12-18T04:32:17;-5.90;99.90
13802;DHT22;6972;51.518;6.918;2022-12-18T04:34:43;-5.90;99.90
13802;DHT22;6972;51.518;6.918;2022-12-18T04:37:08;-5.90;99.90
13802;DHT22;6972;51.518;6.918;2022-12-18T04:39:34;-5.90;99.90
13802;DHT22;6972;51.518;6.918;2022-12-18T04:42:01;-6.00;99.90
13802;DHT22;6972;51.518;6.918;2022-12-18T04:44:26;-6.00;99.90
13802;DHT22;6972;51.518;6.918;2022-12-18T04:46:52;-6.00;99.90
13802;DHT22;6972;51.518;6.918;2022-12-18T04:49:17;-5.90;99.90
13802;DHT22;6972;51.518;6.918;2022-12-18T04:51:43;-4.60;99.90
13802;DHT22;6972;51.518;6.918;2022-12-18T04:54:08;-6.00;99.90
13802;DHT22;6972;51.518;6.918;2022-12-18T04:56:34;-6.00;99.90
13802;DHT22;6972;51.518;6.918;2022-12-18T04:59:00;-6.00;99.90
13802;DHT22;6972;51.518;6.918;2022-12-18T05:01:25;-6.00;99.90
13802;DHT22;6972;51.518;6.918;2022-12-18T05:03:51;-6.00;99.90
13802;DHT22;6972;51.518;6.918;2022-12-18T05:06:17;-6.00;99.90
13802;DHT22;6972;51.518;6.918;2022-12-18T05:08:43;-6.00;99.90
13802;DHT22;6972;51.518;6.918;2022-12-18T05:11:11;-6.00;99.90
13802;DHT22;6972;51.518;6.918;2022-12-18T05:13:37;-6.00;99.90
13802;DHT22;6972;51.518;6.918;2022-12-18T05:16:04;-6.00;99.90
13802;DHT22;6972;51.518;6.918;2022-12-18T05:18:30;-6.00;99.90
13802;DHT22;6972;51.518;6.918;2022-12-18T05:20:56;-6.00;99.90
13802;DHT22;6972;51.518;6.918;2022-12-18T05:23:23;-5.90;99.90
13802;DHT22;6972;51.518;6.918;2022-12-18T05:25:53;-5.90;99.90
13802;DHT22;6972;51.518;6.918;2022-12-18T05:28:19;-6.00;99.90
13802;DHT22;6972;51.518;6.918;2022-12-18T05:30:52;-6.00;99.90
13802;DHT22;6972;51.518;6.918;2022-12-18T05:33:19;-6.00;99.90
13802;DHT22;6972;51.518;6.918;2022-12-18T05:35:51;-6.00;99.90
13802;DHT22;6972;51.518;6.918;2022-12-18T05:38:17;-5.90;99.90
13802;DHT22;6972;51.518;6.918;2022-12-18T05:40:45;-6.00;99.90
13802;DHT22;6972;51.518;6.918;2022-12-18T05:43:10;-5.90;99.90
13802;DHT22;6972;51.518;6.918;2022-12-18T05:45:37;-6.00;99.90
13802;DHT22;6972;51.518;6.918;2022-12-18T05:48:03;-5.90;99.90
13802;DHT22;6972;51.518;6.918;2022-12-18T05:50:29;-5.80;99.90
13802;DHT22;6972;51.518;6.918;2022-12-18T05:52:55;-5.90;99.90
13802;DHT22;6972;51.518;6.918;2022-12-18T05:55:20;-5.90;99.90
13802;DHT22;6972;51.518;6.918;2022-12-18T05:57:46;-5.90;99.90
13802;DHT22;6972;51.518;6.918;2022-12-18T06:00:12;-5.90;99.90
13802;DHT22;6972;51.518;6.918;2022-12-18T06:02:38;-5.90;99.90
13802;DHT22;6972;51.518;6.918;2022-12-18T06:05:05;-5.90;99.90
13802;DHT22;6972;51.518;6.918;2022-12-18T06:07:30;-5.70;99.90
13802;DHT22;6972;51.518;6.918;2022-12-18T06:09:56;-5.70;99.90
13802;DHT22;6972;51.518;6.918;2022-12-18T06:12:22;-5.60;99.90
13802;DHT22;6972;51.518;6.918;2022-12-18T06:14:47;-5.60;99.90
13802;DHT22;6972;51.518;6.918;2022-12-18T06:17:13;-5.60;99.90
13802;DHT22;6972;51.518;6.918;2022-12-18T06:19:38;-5.70;99.90
13802;DHT22;6972;51.518;6.918;2022-12-18T06:22:04;-5.40;99.90
13802;DHT22;6972;51.518;6.918;2022-12-18T06:24:30;-5.60;99.90
13802;DHT22;6972;51.518;6.918;2022-12-18T06:26:56;-5.60;99.90
13802;DHT22;6972;51.518;6.918;2022-12-18T06:29:21;-5.60;99.90
13802;DHT22;6972;51.518;6.918;2022-12-18T06:31:47;-5.60;99.90
13802;DHT22;6972;51.518;6.918;2022-12-18T06:34:12;-5.60;99.90
13802;DHT22;6972;51.518;6.918;2022-12-18T06:36:38;-5.60;99.90
13802;DHT22;6972;51.518;6.918;2022-12-18T06:39:04;-5.60;99.90
13802;DHT22;6972;51.518;6.918;2022-12-18T06:41:29;-5.70;99.90
13802;DHT22;6972;51.518;6.918;2022-12-18T06:43:55;-5.70;99.90
13802;DHT22;6972;51.518;6.918;2022-12-18T06:46:21;-5.70;99.90
13802;DHT22;6972;51.518;6.918;2022-12-18T06:48:47;-5.80;99.90
13802;DHT22;6972;51.518;6.918;2022-12-18T06:51:19;-5.80;99.90
13802;DHT22;6972;51.518;6.918;2022-12-18T06:53:45;-5.80;99.90
13802;DHT22;6972;51.518;6.918;2022-12-18T06:56:10;-5.90;99.90
13802;DHT22;6972;51.518;6.918;2022-12-18T06:58:37;-5.80;99.90
13802;DHT22;6972;51.518;6.918;2022-12-18T07:01:04;-5.90;99.90
13802;DHT22;6972;51.518;6.918;2022-12-18T07:03:30;-5.80;99.90
13802;DHT22;6972;51.518;6.918;2022-12-18T07:05:56;-5.90;99.90
13802;DHT22;6972;51.518;6.918;2022-12-18T07:08:22;-5.90;99.90
13802;DHT22;6972;51.518;6.918;2022-12-18T07:10:47;-5.80;99.90
13802;DHT22;6972;51.518;6.918;2022-12-18T07:13:15;-5.80;99.90
13802;DHT22;6972;51.518;6.918;2022-12-18T07:15:41;-5.80;99.90
13802;DHT22;6972;51.518;6.918;2022-12-18T07:18:06;-5.80;99.90
13802;DHT22;6972;51.518;6.918;2022-12-18T07:20:32;-5.80;99.90
13802;DHT22;6972;51.518;6.918;2022-12-18T07:22:57;-5.80;99.90
13802;DHT22;6972;51.518;6.918;2022-12-18T07:25:23;-5.80;99.90
13802;DHT22;6972;51.518;6.918;2022-12-18T07:27:48;-5.80;99.90
13802;DHT22;6972;51.518;6.918;2022-12-18T07:30:14;-5.80;99.90
13802;DHT22;6972;51.518;6.918;2022-12-18T07:32:40;-5.80;99.90
13802;DHT22;6972;51.518;6.918;2022-12-18T07:35:05;-5.80;99.90
13802;DHT22;6972;51.518;6.918;2022-12-18T07:37:31;-5.90;99.90
13802;DHT22;6972;51.518;6.918;2022-12-18T07:39:57;-5.90;99.90
13802;DHT22;6972;51.518;6.918;2022-12-18T07:42:22;-5.90;99.90
13802;DHT22;6972;51.518;6.918;2022-12-18T07:45:00;-5.80;99.90
13802;DHT22;6972;51.518;6.918;2022-12-18T07:47:29;-5.80;99.90
13802;DHT22;6972;51.518;6.918;2022-12-18T07:49:57;-5.80;99.90
13802;DHT22;6972;51.518;6.918;2022-12-18T07:52:23;-5.70;99.90
13802;DHT22;6972;51.518;6.918;2022-12-18T07:54:49;-5.70;99.90
13802;DHT22;6972;51.518;6.918;2022-12-18T07:57:15;-5.60;99.90
13802;DHT22;6972;51.518;6.918;2022-12-18T07:59:41;-5.60;99.90
13802;DHT22;6972;51.518;6.918;2022-12-18T08:02:07;-5.50;99.90
13802;DHT22;6972;51.518;6.918;2022-12-18T08:04:33;-5.50;99.90
13802;DHT22;6972;51.518;6.918;2022-12-18T08:07:02;-5.40;99.90
13802;DHT22;6972;51.518;6.918;2022-12-18T08:09:27;-7.50;99.90
13802;DHT22;6972;51.518;6.918;2022-12-18T08:11:53;-5.30;99.90
13802;DHT22;6972;51.518;6.918;2022-12-18T08:14:18;-5.30;99.90
13802;DHT22;6972;51.518;6.918;2022-12-18T08:16:45;-5.30;99.90
13802;DHT22;6972;51.518;6.918;2022-12-18T08:19:11;-5.30;99.90
13802;DHT22;6972;51.518;6.918;2022-12-18T08:21:37;-5.20;99.90
13802;DHT22;6972;51.518;6.918;2022-12-18T08:24:06;-4.10;99.90
13802;DHT22;6972;51.518;6.918;2022-12-18T08:26:32;-5.20;99.90
13802;DHT22;6972;51.518;6.918;2022-12-18T08:28:58;-5.10;99.90
13802;DHT22;6972;51.518;6.918;2022-12-18T08:31:26;-5.10;99.90
13802;DHT22;6972;51.518;6.918;2022-12-18T08:33:54;-5.00;99.90
13802;DHT22;6972;51.518;6.918;2022-12-18T08:36:20;-4.90;99.90
13802;DHT22;6972;51.518;6.918;2022-12-18T08:38:46;-4.90;99.90
13802;DHT22;6972;51.518;6.918;2022-12-18T08:41:15;-4.80;99.90
13802;DHT22;6972;51.518;6.918;2022-12-18T08:43:41;-4.80;99.90
13802;DHT22;6972;51.518;6.918;2022-12-18T08:46:27;-4.80;99.90
13802;DHT22;6972;51.518;6.918;2022-12-18T08:48:54;-4.70;99.90
13802;DHT22;6972;51.518;6.918;2022-12-18T08:51:24;-4.60;99.90
13802;DHT22;6972;51.518;6.918;2022-12-18T08:53:51;-4.60;99.90
13802;DHT22;6972;51.518;6.918;2022-12-18T08:56:16;-4.50;99.90
13802;DHT22;6972;51.518;6.918;2022-12-18T08:58:43;-4.40;99.90
13802;DHT22;6972;51.518;6.918;2022-12-18T09:01:10;-4.30;99.90
13802;DHT22;6972;51.518;6.918;2022-12-18T09:03:37;-4.30;99.90
13802;DHT22;6972;51.518;6.918;2022-12-18T09:06:03;-4.20;99.90
13802;DHT22;6972;51.518;6.918;2022-12-18T09:08:29;-4.10;99.90
13802;DHT22;6972;51.518;6.918;2022-12-18T09:10:55;-4.00;99.90
13802;DHT22;6972;51.518;6.918;2022-12-18T09:13:21;-4.00;99.90
13802;DHT22;6972;51.518;6.918;2022-12-18T09:15:52;-3.80;99.90
13802;DHT22;6972;51.518;6.918;2022-12-18T09:18:19;-3.80;99.90
13802;DHT22;6972;51.518;6.918;2022-12-18T09:20:46;-3.70;99.90
13802;DHT22;6972;51.518;6.918;2022-12-18T09:23:12;-3.70;99.90
13802;DHT22;6972;51.518;6.918;2022-12-18T09:25:38;-3.60;99.90
13802;DHT22;6972;51.518;6.918;2022-12-18T09:28:06;-3.60;99.90
13802;DHT22;6972;51.518;6.918;2022-12-18T09:30:32;-3.60;99.90
13802;DHT22;6972;51.518;6.918;2022-12-18T09:33:02;-3.50;99.90
13802;DHT22;6972;51.518;6.918;2022-12-18T09:35:27;-3.50;99.90
13802;DHT22;6972;51.518;6.918;2022-12-18T09:37:53;-3.50;99.90
13802;DHT22;6972;51.518;6.918;2022-12-18T09:40:22;-3.50;99.90
13802;DHT22;6972;51.518;6.918;2022-12-18T09:42:54;-3.40;99.90
13802;DHT22;6972;51.518;6.918;2022-12-18T09:45:20;-3.40;99.90
13802;DHT22;6972;51.518;6.918;2022-12-18T09:47:47;-3.30;99.90
13802;DHT22;6972;51.518;6.918;2022-12-18T09:52:55;-3.20;99.90
13802;DHT22;6972;51.518;6.918;2022-12-18T09:55:37;-3.00;99.90
13802;DHT22;6972;51.518;6.918;2022-12-18T10:00:33;-3.00;99.90
13802;DHT22;6972;51.518;6.918;2022-12-18T10:03:09;-2.90;99.90
13802;DHT22;6972;51.518;6.918;2022-12-18T10:14:01;-2.60;99.90
13802;DHT22;6972;51.518;6.918;2022-12-18T10:16:47;-2.50;99.90
13802;DHT22;6972;51.518;6.918;2022-12-18T10:19:34;-2.40;99.90
13802;DHT22;6972;51.518;6.918;2022-12-18T10:22:15;-2.30;99.90
13802;DHT22;6972;51.518;6.918;2022-12-18T10:27:26;-2.20;99.90
13802;DHT22;6972;51.518;6.918;2022-12-18T10:29:53;-2.10;99.90
13802;DHT22;6972;51.518;6.918;2022-12-18T10:32:28;-2.00;99.90
13802;DHT22;6972;51.518;6.918;2022-12-18T10:34:56;-1.90;99.90
13802;DHT22;6972;51.518;6.918;2022-12-18T10:37:25;-1.70;99.90
13802;DHT22;6972;51.518;6.918;2022-12-18T10:42:32;-1.70;99.90
13802;DHT22;6972;51.518;6.918;2022-12-18T10:45:13;-1.60;99.90
13802;DHT22;6972;51.518;6.918;2022-12-18T10:47:44;-1.60;99.90
13802;DHT22;6972;51.518;6.918;2022-12-18T10:50:37;-1.20;99.90
13802;DHT22;6972;51.518;6.918;2022-12-18T10:53:04;-1.50;99.90
13802;DHT22;6972;51.518;6.918;2022-12-18T10:55:39;-1.50;99.90
13802;DHT22;6972;51.518;6.918;2022-12-18T10:58:26;-1.40;99.90
13802;DHT22;6972;51.518;6.918;2022-12-18T11:01:07;-1.40;99.90
13802;DHT22;6972;51.518;6.918;2022-12-18T11:08:29;-1.30;99.90
13802;DHT22;6972;51.518;6.918;2022-12-18T11:10:55;-1.20;99.90
13802;DHT22;6972;51.518;6.918;2022-12-18T11:13:23;-1.10;99.90
13802;DHT22;6972;51.518;6.918;2022-12-18T11:15:51;-1.00;99.90
13802;DHT22;6972;51.518;6.918;2022-12-18T11:18:30;-1.00;99.90
13802;DHT22;6972;51.518;6.918;2022-12-18T11:21:08;-0.90;99.90
13802;DHT22;6972;51.518;6.918;2022-12-18T11:23:34;-0.80;99.90
13802;DHT22;6972;51.518;6.918;2022-12-18T11:26:04;-0.70;99.90
13802;DHT22;6972;51.518;6.918;2022-12-18T11:31:28;-0.60;99.90
13802;DHT22;6972;51.518;6.918;2022-12-18T11:34:13;-0.60;99.90
13802;DHT22;6972;51.518;6.918;2022-12-18T11:36:45;-0.60;99.90
13802;DHT22;6972;51.518;6.918;2022-12-18T11:39:19;-0.50;99.90
13802;DHT22;6972;51.518;6.918;2022-12-18T11:44:58;-1.50;99.90
13802;DHT22;6972;51.518;6.918;2022-12-18T11:47:52;-0.50;99.90
13802;DHT22;6972;51.518;6.918;2022-12-18T11:50:24;-0.40;99.90
13802;DHT22;6972;51.518;6.918;2022-12-18T11:52:50;-0.40;99.90
13802;DHT22;6972;51.518;6.918;2022-12-18T12:01:34;-0.20;99.90
13802;DHT22;6972;51.518;6.918;2022-12-18T12:07:49;-0.10;99.90
13802;DHT22;6972;51.518;6.918;2022-12-18T12:10:07;-0.10;99.90
13802;DHT22;6972;51.518;6.918;2022-12-18T12:26:11;0.00;99.90
13802;DHT22;6972;51.518;6.918;2022-12-18T12:34:21;0.00;99.90
13802;DHT22;6972;51.518;6.918;2022-12-18T12:39:37;0.00;99.90
13802;DHT22;6972;51.518;6.918;2022-12-18T12:42:08;0.10;99.90
13802;DHT22;6972;51.518;6.918;2022-12-18T12:44:57;0.10;99.90
13802;DHT22;6972;51.518;6.918;2022-12-18T12:47:28;0.20;99.90
13802;DHT22;6972;51.518;6.918;2022-12-18T12:49:56;0.20;99.90
13802;DHT22;6972;51.518;6.918;2022-12-18T12:52:37;0.20;99.90
13802;DHT22;6972;51.518;6.918;2022-12-18T12:55:07;0.30;99.90
13802;DHT22;6972;51.518;6.918;2022-12-18T13:00:25;0.30;99.90
13802;DHT22;6972;51.518;6.918;2022-12-18T13:03:01;0.20;99.90
13802;DHT22;6972;51.518;6.918;2022-12-18T13:08:53;0.20;99.90
13802;DHT22;6972;51.518;6.918;2022-12-18T13:14:24;0.30;99.90
13802;DHT22;6972;51.518;6.918;2022-12-18T13:16:51;0.30;99.90
13802;DHT22;6972;51.518;6.918;2022-12-18T13:19:23;0.30;99.90
13802;DHT22;6972;51.518;6.918;2022-12-18T13:21:55;0.30;99.90
13802;DHT22;6972;51.518;6.918;2022-12-18T13:24:27;0.40;99.90
13802;DHT22;6972;51.518;6.918;2022-12-18T13:26:55;0.40;99.90
13802;DHT22;6972;51.518;6.918;2022-12-18T13:29:44;0.40;99.90
13802;DHT22;6972;51.518;6.918;2022-12-18T13:32:26;0.50;99.90
13802;DHT22;6972;51.518;6.918;2022-12-18T13:37:51;0.60;99.90
13802;DHT22;6972;51.518;6.918;2022-12-18T13:46:40;0.70;99.90
13802;DHT22;6972;51.518;6.918;2022-12-18T13:48:37;1.30;99.90
13802;DHT22;6972;51.518;6.918;2022-12-18T13:51:06;0.80;99.90
13802;DHT22;6972;51.518;6.918;2022-12-18T13:56:03;0.90;99.90
13802;DHT22;6972;51.518;6.918;2022-12-18T13:58:29;0.90;99.90
13802;DHT22;6972;51.518;6.918;2022-12-18T14:00:55;0.90;99.90
13802;DHT22;6972;51.518;6.918;2022-12-18T14:03:23;0.90;99.90
13802;DHT22;6972;51.518;6.918;2022-12-18T14:05:58;0.80;99.90
13802;DHT22;6972;51.518;6.918;2022-12-18T14:08:27;0.80;99.90
13802;DHT22;6972;51.518;6.918;2022-12-18T14:10:56;0.70;99.90
13802;DHT22;6972;51.518;6.918;2022-12-18T14:13:30;0.80;99.90
13802;DHT22;6972;51.518;6.918;2022-12-18T14:15:58;0.70;99.90
13802;DHT22;6972;51.518;6.918;2022-12-18T14:18:42;0.70;99.90
13802;DHT22;6972;51.518;6.918;2022-12-18T14:21:35;0.70;99.90
13802;DHT22;6972;51.518;6.918;2022-12-18T14:26:31;0.80;99.90
13802;DHT22;6972;51.518;6.918;2022-12-18T14:29:14;0.80;99.90
13802;DHT22;6972;51.518;6.918;2022-12-18T14:31:42;0.80;99.90
13802;DHT22;6972;51.518;6.918;2022-12-18T14:34:15;0.80;99.90
13802;DHT22;6972;51.518;6.918;2022-12-18T14:36:41;0.90;99.90
13802;DHT22;6972;51.518;6.918;2022-12-18T14:39:17;0.90;99.90
13802;DHT22;6972;51.518;6.918;2022-12-18T14:41:42;0.90;99.90
13802;DHT22;6972;51.518;6.918;2022-12-18T14:44:12;2.60;99.90
13802;DHT22;6972;51.518;6.918;2022-12-18T14:46:41;0.90;99.90
13802;DHT22;6972;51.518;6.918;2022-12-18T14:49:35;1.00;99.90
13802;DHT22;6972;51.518;6.918;2022-12-18T14:52:27;1.00;99.90
13802;DHT22;6972;51.518;6.918;2022-12-18T14:54:54;1.20;99.90
13802;DHT22;6972;51.518;6.918;2022-12-18T14:57:25;1.00;99.90
13802;DHT22;6972;51.518;6.918;2022-12-18T15:00:04;1.20;99.90
13802;DHT22;6972;51.518;6.918;2022-12-18T15:02:31;1.00;99.90
13802;DHT22;6972;51.518;6.918;2022-12-18T15:07:42;0.90;99.90
13802;DHT22;6972;51.518;6.918;2022-12-18T15:12:49;0.90;99.90
13802;DHT22;6972;51.518;6.918;2022-12-18T15:20:44;0.80;99.90
13802;DHT22;6972;51.518;6.918;2022-12-18T15:23:24;0.70;99.90
13802;DHT22;6972;51.518;6.918;2022-12-18T15:26:08;0.70;99.90
13802;DHT22;6972;51.518;6.918;2022-12-18T15:33:37;0.70;99.90
13802;DHT22;6972;51.518;6.918;2022-12-18T15:36:08;0.70;99.90
13802;DHT22;6972;51.518;6.918;2022-12-18T15:38:34;0.80;99.90
13802;DHT22;6972;51.518;6.918;2022-12-18T15:41:00;0.80;99.90
13802;DHT22;6972;51.518;6.918;2022-12-18T15:43:26;0.90;99.90
13802;DHT22;6972;51.518;6.918;2022-12-18T15:46:14;0.90;99.90
13802;DHT22;6972;51.518;6.918;2022-12-18T15:53:39;1.20;99.90
13802;DHT22;6972;51.518;6.918;2022-12-18T15:56:10;1.20;99.90
13802;DHT22;6972;51.518;6.918;2022-12-18T15:58:54;1.20;99.90
13802;DHT22;6972;51.518;6.918;2022-12-18T16:01:21;1.40;99.90
13802;DHT22;6972;51.518;6.918;2022-12-18T16:03:47;1.40;99.90
13802;DHT22;6972;51.518;6.918;2022-12-18T16:06:13;1.50;99.90
13802;DHT22;6972;51.518;6.918;2022-12-18T16:08:39;1.40;99.90
13802;DHT22;6972;51.518;6.918;2022-12-18T16:11:05;1.50;99.90
13802;DHT22;6972;51.518;6.918;2022-12-18T16:13:31;1.60;99.90
13802;DHT22;6972;51.518;6.918;2022-12-18T16:15:57;1.60;99.90
13802;DHT22;6972;51.518;6.918;2022-12-18T16:18:22;1.60;99.90
13802;DHT22;6972;51.518;6.918;2022-12-18T16:23:26;1.50;99.90
13802;DHT22;6972;51.518;6.918;2022-12-18T16:25:52;1.60;99.90
13802;DHT22;6972;51.518;6.918;2022-12-18T16:28:18;3.20;99.90
13802;DHT22;6972;51.518;6.918;2022-12-18T16:35:41;1.40;99.90
13802;DHT22;6972;51.518;6.918;2022-12-18T16:38:06;1.50;99.90
13802;DHT22;6972;51.518;6.918;2022-12-18T16:40:32;3.70;99.90
13802;DHT22;6972;51.518;6.918;2022-12-18T16:45:25;1.30;99.90
13802;DHT22;6972;51.518;6.918;2022-12-18T16:47:58;1.20;99.90
13802;DHT22;6972;51.518;6.918;2022-12-18T16:50:23;-0.90;99.90
13802;DHT22;6972;51.518;6.918;2022-12-18T16:52:49;2.20;99.90
13802;DHT22;6972;51.518;6.918;2022-12-18T16:55:15;2.70;99.90
13802;DHT22;6972;51.518;6.918;2022-12-18T16:57:40;1.20;99.90
13802;DHT22;6972;51.518;6.918;2022-12-18T17:00:06;1.20;99.90
13802;DHT22;6972;51.518;6.918;2022-12-18T17:04:58;1.30;99.90
13802;DHT22;6972;51.518;6.918;2022-12-18T17:07:25;1.30;99.90
13802;DHT22;6972;51.518;6.918;2022-12-18T17:09:51;1.40;99.90
13802;DHT22;6972;51.518;6.918;2022-12-18T17:12:18;1.40;99.90
13802;DHT22;6972;51.518;6.918;2022-12-18T17:14:44;1.40;99.90
13802;DHT22;6972;51.518;6.918;2022-12-18T17:17:10;1.40;99.90
13802;DHT22;6972;51.518;6.918;2022-12-18T17:19:35;1.40;99.90
13802;DHT22;6972;51.518;6.918;2022-12-18T17:22:01;1.40;99.90
13802;DHT22;6972;51.518;6.918;2022-12-18T17:24:27;1.40;99.90
13802;DHT22;6972;51.518;6.918;2022-12-18T17:26:52;1.40;99.90
13802;DHT22;6972;51.518;6.918;2022-12-18T17:29:19;1.40;99.90
13802;DHT22;6972;51.518;6.918;2022-12-18T17:31:45;1.40;99.90
13802;DHT22;6972;51.518;6.918;2022-12-18T17:34:12;3.30;99.90
13802;DHT22;6972;51.518;6.918;2022-12-18T17:36:38;1.50;99.90
13802;DHT22;6972;51.518;6.918;2022-12-18T17:39:05;1.40;99.90
13802;DHT22;6972;51.518;6.918;2022-12-18T17:41:31;1.40;99.90
13802;DHT22;6972;51.518;6.918;2022-12-18T17:43:58;1.50;99.90
13802;DHT22;6972;51.518;6.918;2022-12-18T17:46:27;1.40;99.90
13802;DHT22;6972;51.518;6.918;2022-12-18T17:49:01;1.40;99.90
13802;DHT22;6972;51.518;6.918;2022-12-18T17:51:27;1.50;99.90
13802;DHT22;6972;51.518;6.918;2022-12-18T17:56:21;1.40;99.90
13802;DHT22;6972;51.518;6.918;2022-12-18T17:58:48;1.40;99.90
13802;DHT22;6972;51.518;6.918;2022-12-18T18:01:17;1.40;99.90
13802;DHT22;6972;51.518;6.918;2022-12-18T18:03:43;1.50;99.90
13802;DHT22;6972;51.518;6.918;2022-12-18T18:06:08;1.40;99.90
13802;DHT22;6972;51.518;6.918;2022-12-18T18:08:35;1.40;99.90
13802;DHT22;6972;51.518;6.918;2022-12-18T18:11:06;1.40;99.90
13802;DHT22;6972;51.518;6.918;2022-12-18T18:13:50;1.40;99.90
13802;DHT22;6972;51.518;6.918;2022-12-18T18:19:02;1.40;99.90
13802;DHT22;6972;51.518;6.918;2022-12-18T18:21:28;1.40;99.90
13802;DHT22;6972;51.518;6.918;2022-12-18T18:26:37;1.40;99.90
13802;DHT22;6972;51.518;6.918;2022-12-18T18:29:05;1.30;99.90
13802;DHT22;6972;51.518;6.918;2022-12-18T18:40:14;1.30;99.90
13802;DHT22;6972;51.518;6.918;2022-12-18T18:42:42;1.30;99.90
13802;DHT22;6972;51.518;6.918;2022-12-18T18:57:18;1.30;99.90
13802;DHT22;6972;51.518;6.918;2022-12-18T18:59:45;1.30;99.90